Latest Weather Observations for Ben Nevis

IDV60801

Issued at 6:02 pm EST Tuesday 21 April 2015 (issued every 30 minutes, with the page automatically refreshed every 10 minutes)

About weather observations | Map of weather stations | Latest weather observations for VIC | Other Formats
Station Details ID: 079101 Name: BEN NEVIS Lat: -37.23 Lon: 143.20 Height: 875.0 m
Data from the previous 72 hours. | See also: Recent months at Ben Nevis
Date/Time
EST
Temp
°C
App
Temp
°C
Dew
Point
Rel
Hum
%
Delta-T
°C
Wind Press
QNH
hPa
Press
MSL
hPa
Rain
since 9 am
mm
Dir
 
Spd
km/h
Gust
km/h
Spd
kts
Gust
kts
21/06:00pm 7.8 2.3 3.8 76 1.8 SSE 22 39 12 21 - - 0.0
21/05:30pm 8.5 5.1 3.9 73 2.1 SSE 11 19 6 10 - - 0.0
21/05:00pm 9.3 4.2 4.3 71 2.3 S 20 35 11 19 - - 0.0
21/04:30pm 9.6 3.7 3.8 67 2.7 S 24 41 13 22 - - 0.0
21/04:00pm 10.0 4.3 4.8 70 2.5 S 24 39 13 21 - - 0.0
21/03:30pm 10.3 3.1 4.9 69 2.6 S 32 56 17 30 - - 0.0
21/03:21pm 10.1 3.6 4.9 70 2.5 S 28 52 15 28 - - 0.0
21/03:00pm 10.7 4.9 4.6 66 2.9 SSE 24 41 13 22 - - 0.0
21/02:30pm 10.0 4.5 5.8 75 2.0 S 24 43 13 23 - - 0.0
21/02:00pm 10.3 5.6 5.9 74 2.1 SSE 20 35 11 19 - - 0.0
21/01:30pm 10.0 4.4 5.6 74 2.1 SSE 24 39 13 21 - - 0.0
21/01:00pm 10.2 6.3 5.4 72 2.3 SSE 15 30 8 16 - - 0.0
21/12:30pm 10.0 4.8 5.6 74 2.1 S 22 37 12 20 - - 0.0
21/12:00pm 9.9 6.4 5.3 73 2.2 SSE 13 26 7 14 - - 0.0
21/11:30am 9.3 4.9 4.7 73 2.2 SE 17 43 9 23 - - 0.0
21/11:00am 8.9 4.4 4.3 73 2.1 SE 17 35 9 19 - - 0.0
21/10:30am 9.1 4.7 4.5 73 2.1 SE 17 28 9 15 - - 0.0
21/10:00am 8.2 2.7 4.0 75 1.9 SSE 22 56 12 30 - - 0.0
21/09:30am 7.7 2.6 4.1 78 1.6 SE 20 44 11 24 - - 0.0
21/09:00am 6.6 0.4 4.4 86 1.0 SE 26 54 14 29 - - 0.0
21/08:33am 6.4 -0.5 4.6 88 0.8 SE 30 52 16 28 - - 0.0
21/08:30am 6.4 -0.1 4.6 88 0.8 SE 28 44 15 24 - - 0.0
21/08:12am 6.2 -0.4 4.2 87 0.9 SE 28 48 15 26 - - 0.0
21/08:00am 6.1 0.3 4.4 89 0.8 SSE 24 39 13 21 - - 0.0
21/07:32am 5.8 -0.9 3.6 86 1.0 SSE 28 46 15 25 - - 0.0
21/07:30am 5.9 -1.2 3.7 86 1.0 SSE 30 46 16 25 - - 0.0
21/07:19am 5.8 -0.9 3.8 87 0.9 SSE 28 52 15 28 - - 0.0
21/07:00am 5.6 0.0 3.6 87 0.9 SSE 22 56 12 30 - - 0.0
21/06:30am 5.5 -0.5 3.3 86 1.0 SSE 24 50 13 27 - - 0.0
21/06:00am 5.8 0.1 3.0 82 1.2 SSE 22 50 12 27 - - 0.0
21/05:30am 5.7 -0.3 3.2 84 1.1 SSE 24 52 13 28 - - 0.0
21/05:18am 5.7 -1.0 3.4 85 1.0 SSE 28 50 15 27 - - 0.0
21/05:00am 5.3 -0.7 3.3 87 0.9 SSE 24 48 13 26 - - 0.0
21/04:30am 5.5 -1.6 3.3 86 1.0 SSE 30 54 16 29 - - 0.0
21/04:22am 5.6 -1.2 3.3 85 1.0 SSE 28 52 15 28 - - 0.0
21/04:00am 5.2 0.1 3.9 91 0.6 SSE 20 37 11 20 - - 0.0
21/03:30am 4.9 -2.8 3.4 90 0.7 S 33 72 18 39 - - 0.0
21/03:00am 5.0 -2.5 3.5 90 0.7 SSE 32 57 17 31 - - 0.0
21/02:30am 5.1 -2.0 3.4 89 0.7 SSE 30 56 16 30 - - 0.0
21/02:00am 4.9 -2.6 3.4 90 0.7 SSE 32 57 17 31 - - 0.0
21/01:37am 4.7 -2.0 3.4 91 0.6 SSE 28 46 15 25 - - 0.0
21/01:30am 4.6 -1.8 3.1 90 0.7 SSE 26 52 14 28 - - 0.0
21/01:00am 4.6 -1.1 2.8 88 0.8 SSE 22 35 12 19 - - 0.0
21/12:30am 4.8 -1.6 3.1 89 0.7 SSE 26 43 14 23 - - 0.0
21/12:06am 4.7 -2.1 3.0 89 0.7 SSE 28 46 15 25 - - 0.0
21/12:00am 4.5 -1.6 3.0 90 0.6 SSE 24 44 13 24 - - 0.0
 
Date/Time
EST
Temp
°C
App
Temp
°C
Dew
Point
Rel
Hum
%
Delta-T
°C
Wind Press
QNH
hPa
Press
MSL
hPa
Rain
since 9 am
mm
Dir
 
Spd
km/h
Gust
km/h
Spd
kts
Gust
kts
20/11:30pm 4.5 -1.9 3.0 90 0.6 SSE 26 41 14 22 - - 0.0
20/11:00pm 4.6 -2.3 2.6 87 0.9 SSE 28 44 15 24 - - 0.0
20/10:46pm 4.7 -2.2 2.6 86 0.9 SSE 28 46 15 25 - - 0.0
20/10:30pm 4.7 -1.8 2.6 86 0.9 SSE 26 41 14 22 - - 0.0
20/10:00pm 4.7 -2.1 3.0 89 0.7 SSE 28 46 15 25 - - 0.0
20/09:56pm 4.8 -2.0 3.1 89 0.7 SSE 28 46 15 25 - - 0.0
20/09:30pm 4.7 -1.8 2.4 85 1.0 SSE 26 46 14 25 - - 0.0
20/09:00pm 4.7 -1.5 2.1 83 1.1 SSE 24 41 13 22 - - 0.0
20/08:30pm 4.9 -1.4 1.4 78 1.5 SSE 24 37 13 20 - - 0.0
20/08:18pm 5.1 -2.0 1.4 77 1.5 SSE 28 46 15 25 - - 0.0
20/08:00pm 4.9 -1.4 1.7 80 1.3 SSE 24 37 13 20 - - 0.0
20/07:30pm 5.2 -0.7 1.9 79 1.4 SSE 22 41 12 22 - - 0.0
20/07:00pm 5.3 -0.2 1.8 78 1.5 SSE 20 35 11 19 - - 0.0
20/06:30pm 5.6 0.1 1.7 76 1.7 SSE 20 32 11 17 - - 0.0
20/06:00pm 5.8 0.2 1.5 74 1.8 SSE 20 35 11 19 - - 0.0
20/05:30pm 6.4 1.5 2.1 74 1.9 SSE 17 32 9 17 - - 0.0
20/05:00pm 6.5 1.1 2.6 76 1.7 SSE 20 37 11 20 - - 0.0
20/04:30pm 7.0 1.8 2.7 74 1.9 SSE 19 32 10 17 - - 0.0
20/04:00pm 7.1 2.3 2.6 73 2.0 SSE 17 32 9 17 - - 0.0
20/03:30pm 7.2 2.1 2.9 74 1.9 SSE 19 35 10 19 - - 0.0
20/03:00pm 7.5 1.4 2.6 71 2.2 SSE 24 41 13 22 - - 0.0
20/02:30pm 7.5 1.3 2.4 70 2.2 SSE 24 39 13 21 - - 0.0
20/02:00pm 8.0 2.6 2.3 67 2.5 SSE 20 48 11 26 - - 0.0
20/01:30pm 7.7 2.5 2.6 70 2.3 SSE 19 32 10 17 - - 0.0
20/01:00pm 7.7 2.1 3.2 73 2.0 SSE 22 44 12 24 - - 0.0
20/12:30pm 7.0 2.3 3.1 76 1.7 SSE 17 30 9 16 - - 0.0
20/12:00pm 6.8 1.6 2.7 75 1.8 SSE 19 33 10 18 - - 0.0
20/11:30am 7.0 0.9 2.7 74 1.9 SSE 24 46 13 25 - - 0.0
20/11:22am 6.9 0.8 3.0 76 1.7 SSE 24 46 13 25 - - 0.0
20/11:00am 7.1 2.4 3.0 75 1.8 SSE 17 33 9 18 - - 0.0
20/10:30am 7.4 2.2 3.5 76 1.8 SE 20 35 11 19 - - 0.0
20/10:00am 6.1 0.7 2.6 78 1.5 SSE 20 41 11 22 - - 0.0
20/09:30am 5.1 -1.6 1.4 77 1.5 SSE 26 43 14 23 - - 0.0
20/09:03am 4.4 -3.3 2.1 85 1.0 SSE 32 50 17 27 - - 0.0
20/09:00am 4.1 -3.8 2.0 86 0.9 SSE 33 50 18 27 - - 0.4
20/08:32am 4.0 -3.4 1.9 86 0.9 SSE 30 50 16 27 - - 0.4
20/08:30am 3.9 -3.5 1.9 87 0.8 SSE 30 46 16 25 - - 0.4
20/08:00am 3.8 -4.0 1.5 85 1.0 SSE 32 57 17 31 - - 0.4
20/07:53am 3.8 -3.7 1.5 85 1.0 SSE 30 52 16 28 - - 0.4
20/07:30am 3.6 -2.7 1.3 85 0.9 SSE 24 44 13 24 - - 0.4
20/07:00am 3.3 -3.4 1.3 87 0.8 S 26 44 14 24 - - 0.4
20/06:39am 3.0 -4.2 0.7 85 0.9 S 28 46 15 25 - - 0.4
20/06:30am 3.0 -5.0 0.7 85 0.9 S 32 46 17 25 - - 0.4
20/06:04am 3.0 -4.1 1.1 87 0.8 S 28 48 15 26 - - 0.4
20/06:00am 2.9 -3.9 1.0 87 0.8 S 26 43 14 23 - - 0.4
20/05:30am 3.1 -3.7 0.7 84 1.0 S 26 41 14 22 - - 0.4
20/05:00am 3.0 -4.1 1.2 88 0.7 S 28 43 15 23 - - 0.4
20/04:38am 2.9 -4.9 1.7 92 0.5 S 32 50 17 27 - - 0.4
20/04:30am 2.9 -4.9 1.6 91 0.5 S 32 48 17 26 - - 0.4
20/04:01am 3.0 -5.1 1.1 87 0.8 S 33 52 18 28 - - 0.4
20/04:00am 2.9 -5.6 1.0 87 0.8 S 35 52 19 28 - - 0.4
20/03:30am 2.9 -5.0 1.0 87 0.8 S 32 52 17 28 - - 0.4
20/03:22am 2.9 -4.3 1.0 87 0.8 S 28 52 15 28 - - 0.4
20/03:00am 2.9 -3.9 1.0 87 0.8 S 26 44 14 24 - - 0.4
20/02:30am 2.9 -3.5 0.8 86 0.8 S 24 37 13 20 - - 0.4
20/02:00am 3.0 -2.9 1.5 90 0.6 S 22 41 12 22 - - 0.4
20/01:30am 2.7 -3.7 1.1 89 0.6 S 24 41 13 22 - - 0.4
20/01:00am 2.7 -3.3 0.8 87 0.8 SSE 22 37 12 20 - - 0.2
20/12:30am 2.8 -3.6 0.7 86 0.8 SSE 24 41 13 22 - - 0.2
20/12:00am 2.7 -3.4 0.1 83 1.0 SSE 22 35 12 19 - - 0.2
 
Date/Time
EST
Temp
°C
App
Temp
°C
Dew
Point
Rel
Hum
%
Delta-T
°C
Wind Press
QNH
hPa
Press
MSL
hPa
Rain
since 9 am
mm
Dir
 
Spd
km/h
Gust
km/h
Spd
kts
Gust
kts
19/11:30pm 3.1 -3.5 -0.5 77 1.4 S 24 44 13 24 - - 0.2
19/11:00pm 2.9 -3.3 -0.2 80 1.2 SSE 22 35 12 19 - - 0.2
19/10:30pm 3.0 -3.2 -0.3 79 1.3 SSE 22 39 12 21 - - 0.2
19/10:00pm 3.0 -2.8 -0.1 80 1.2 S 20 35 11 19 - - 0.2
19/09:30pm 3.0 -3.2 -0.5 78 1.4 SSE 22 37 12 20 - - 0.2
19/09:00pm 2.8 -3.1 -0.8 77 1.4 SSE 20 37 11 20 - - 0.2
19/08:30pm 3.0 -2.6 -0.3 79 1.3 S 19 32 10 17 - - 0.2
19/08:00pm 3.2 -2.3 0.6 83 1.0 S 19 30 10 16 - - 0.2
19/07:30pm 3.4 -1.7 0.5 81 1.2 S 17 33 9 18 - - 0.2
19/07:00pm 3.7 -2.4 0.7 81 1.2 S 22 41 12 22 - - 0.2
19/06:30pm 3.8 -2.8 -0.2 75 1.6 S 24 41 13 22 - - 0.2
19/06:00pm 4.0 -2.2 0.0 75 1.6 S 22 43 12 23 - - 0.2
19/05:30pm 4.6 -1.5 0.6 75 1.6 S 22 35 12 19 - - 0.2
19/05:00pm 5.1 -0.6 0.7 73 1.8 S 20 46 11 25 - - 0.2
19/04:30pm 5.5 -0.4 2.0 78 1.5 S 22 44 12 24 - - 0.2
19/04:01pm 5.9 -1.4 0.3 67 2.3 SSW 28 50 15 27 - - 0.2
19/04:00pm 5.9 -0.9 0.5 68 2.2 SSW 26 50 14 27 - - 0.2
19/03:30pm 5.9 0.6 2.9 81 1.3 SSW 20 39 11 21 - - 0.2
19/03:00pm 6.5 0.9 1.2 69 2.2 S 20 39 11 21 - - 0.2
19/02:30pm 6.4 0.8 3.4 81 1.3 SSW 22 44 12 24 - - 0.2
19/02:12pm 4.1 -3.0 1.5 83 1.1 SSW 28 50 15 27 - - 0.2
19/02:00pm 6.3 1.0 2.8 78 1.5 SSW 20 37 11 20 - - 0.0
19/01:30pm 4.5 -1.7 2.2 85 1.0 SSW 24 44 13 24 - - 0.0
19/01:21pm 4.6 -2.5 1.3 79 1.4 SSW 28 52 15 28 - - 0.0
19/01:00pm 5.3 -0.1 1.1 74 1.7 S 19 44 10 24 - - 0.0
19/12:30pm 5.8 -0.4 2.3 78 1.5 S 24 44 13 24 - - 0.0
19/12:00pm 5.1 -1.0 2.5 83 1.1 SSW 24 44 13 24 - - 0.0
19/11:30am 3.1 -4.8 2.1 93 0.4 S 33 63 18 34 - - 0.0
19/11:20am 4.6 -2.5 1.6 81 1.3 SSW 28 56 15 30 - - 0.0
19/11:00am 5.6 -0.3 1.7 76 1.7 S 22 41 12 22 - - 0.0
19/10:45am 5.0 -1.9 2.5 84 1.1 SSW 28 56 15 30 - - 0.0
19/10:30am 4.7 -1.8 2.7 87 0.9 S 26 46 14 25 - - 0.0
19/10:00am 3.9 -3.2 3.5 97 0.2 S 30 52 16 28 - - 0.0
19/09:30am 3.3 -4.4 3.2 99 0.0 SSW 33 57 18 31 - - 0.0
19/09:00am 2.9 -4.0 2.8 99 0.0 SSW 28 46 15 25 - - 5.8
19/08:30am 3.1 -3.7 3.0 99 0.0 SSW 28 50 15 27 - - 5.6
19/08:00am 2.5 -4.4 2.4 99 0.0 S 28 48 15 26 - - 5.6
19/07:30am 2.4 -5.3 2.3 99 0.0 S 32 52 17 28 - - 5.6
19/07:00am 2.5 -4.4 2.4 99 0.0 SSW 28 57 15 31 - - 5.6
19/06:30am 2.6 -4.3 2.5 99 0.0 SSW 28 48 15 26 - - 5.6
19/06:00am 2.5 -4.4 2.4 99 0.0 SSW 28 48 15 26 - - 5.6
19/05:46am 2.4 -4.5 2.3 99 0.0 SSW 28 46 15 25 - - 5.6
19/05:30am 2.3 -5.0 2.2 99 0.0 SSW 30 43 16 23 - - 5.6
19/05:00am 2.8 -4.1 2.7 99 0.0 SSW 28 46 15 25 - - 5.6
19/04:56am 2.8 -4.1 2.7 99 0.0 SW 28 46 15 25 - - 5.6
19/04:30am 2.8 -3.3 2.7 99 0.0 SSW 24 37 13 20 - - 5.6
19/04:00am 2.7 -3.8 2.6 99 0.0 SSW 26 39 14 21 - - 5.6
19/03:30am 2.8 -4.1 2.7 99 0.0 SSW 28 43 15 23 - - 5.6
19/03:07am 3.1 -3.7 3.0 99 0.0 SW 28 46 15 25 - - 5.6
19/03:00am 3.1 -3.0 3.0 99 0.0 SW 24 46 13 25 - - 5.6
19/02:30am 3.3 -3.5 3.2 99 0.0 SW 28 43 15 23 - - 5.6
19/02:05am 3.6 -3.1 3.5 99 0.0 SW 28 46 15 25 - - 5.6
19/02:00am 3.6 -3.1 3.5 99 0.0 SW 28 44 15 24 - - 5.6
19/01:30am 3.5 -4.0 3.4 99 0.0 SW 32 50 17 27 - - 5.6
19/01:00am 3.4 -3.4 3.3 99 0.0 SW 28 48 15 26 - - 5.6
19/12:49am 3.6 -3.1 3.5 99 0.0 SW 28 46 15 25 - - 5.6
19/12:30am 3.9 -3.2 3.8 99 0.0 SW 30 46 16 25 - - 5.6
19/12:00am 4.2 -1.7 4.1 99 0.0 SW 24 39 13 21 - - 5.4
 
Date/Time
EST
Temp
°C
App
Temp
°C
Dew
Point
Rel
Hum
%
Delta-T
°C
Wind Press
QNH
hPa
Press
MSL
hPa
Rain
since 9 am
mm
Dir
 
Spd
km/h
Gust
km/h
Spd
kts
Gust
kts
18/11:34pm 4.4 -2.6 4.3 99 0.0 SW 30 54 16 29 - - 5.4
18/11:30pm 4.4 -2.2 4.3 99 0.0 SW 28 43 15 23 - - 5.4
18/11:00pm 5.0 -1.8 4.9 99 0.0 SW 30 50 16 27 - - 5.4
18/10:30pm 5.3 -1.5 5.2 99 0.0 SW 30 48 16 26 - - 5.4
18/10:00pm 5.3 -1.9 5.2 99 0.0 SW 32 50 17 27 - - 5.4
18/09:33pm 5.4 -1.7 5.3 99 0.0 SW 32 50 17 27 - - 5.4
18/09:30pm 5.4 -1.7 5.3 99 0.0 SW 32 48 17 26 - - 5.4
18/09:00pm 5.6 -2.1 5.5 99 0.0 SW 35 57 19 31 - - 5.4
18/08:30pm 5.3 -4.0 5.2 99 0.0 SSW 43 61 23 33 - - 5.4
18/08:19pm 5.3 -2.8 5.2 99 0.0 SW 37 57 20 31 - - 5.4
18/08:00pm 5.4 -3.1 5.3 99 0.0 SW 39 54 21 29 - - 5.0
18/07:50pm 5.4 -3.1 5.3 99 0.0 SSW 39 57 21 31 - - 5.0
18/07:30pm 5.3 -4.0 5.2 99 0.0 SSW 43 59 23 32 - - 4.4
18/07:00pm 5.5 -4.3 5.4 99 0.0 SSW 46 67 25 36 - - 3.6
18/06:30pm 7.5 -0.5 7.4 99 0.0 SSW 39 59 21 32 - - 1.8
18/06:25pm 7.5 -0.1 7.4 99 0.0 SSW 37 59 20 32 - - 1.8

Other Formats:

Comma delimited format used in spreadsheet applications
http://www.bom.gov.au/fwo/IDV60801/IDV60801.94835.axf

JavaScript Object Notation format (JSON) in row-major order
http://www.bom.gov.au/fwo/IDV60801/IDV60801.94835.json